Time;durP1;ratioP1;P1;durP2;ratioP2;P2;SDS_P1;SDS_P2;PMS_P1;PMS_P2;Temp;Humidity;BMP_temperature;BMP_pressure;BME280_temperature;BME280_humidity;BME280_pressure;Samples;Min_cycle;Max_cycle;Signal;HPM_P1;HPM_P2
2023/08/28 00:01:04;;;;;;;14.50;10.30;;;24.30;99.90;;;;;;5030223;28;20033;-74
2023/08/28 00:03:30;;;;;;;17.73;10.75;;;24.30;99.90;;;;;;5030544;28;20088;-74
2023/08/28 00:05:56;;;;;;;16.35;10.70;;;24.30;99.90;;;;;;5030142;28;20388;-74
2023/08/28 00:08:22;;;;;;;23.20;10.05;;;24.20;99.90;;;;;;5030187;28;20013;-74
2023/08/28 00:10:48;;;;;;;17.70;10.18;;;24.20;99.90;;;;;;5030149;28;20072;-74
2023/08/28 00:13:13;;;;;;;22.50;10.45;;;24.20;99.90;;;;;;5030336;28;20029;-74
2023/08/28 00:15:39;;;;;;;18.02;9.95;;;24.20;99.90;;;;;;5011727;28;20030;-74
2023/08/28 00:18:05;;;;;;;18.52;9.98;;;24.20;99.90;;;;;;5030161;28;20033;-73
2023/08/28 00:20:31;;;;;;;19.73;10.80;;;24.20;99.90;;;;;;5030261;28;20395;-74
2023/08/28 00:22:56;;;;;;;15.95;10.38;;;24.20;99.90;;;;;;5030220;28;20507;-74
2023/08/28 00:25:22;;;;;;;19.98;10.85;;;24.20;99.90;;;;;;5029794;28;20485;-74
2023/08/28 00:27:48;;;;;;;16.38;9.60;;;24.20;99.90;;;;;;5030322;28;20025;-74
2023/08/28 00:30:14;;;;;;;15.75;9.90;;;24.20;99.90;;;;;;4995317;28;20026;-74
2023/08/28 00:32:40;;;;;;;14.40;9.93;;;24.20;99.90;;;;;;5011721;28;20405;-74
2023/08/28 00:35:07;;;;;;;19.95;11.40;;;24.20;99.90;;;;;;4997358;28;20028;-74
2023/08/28 00:37:33;;;;;;;14.38;9.32;;;24.20;99.90;;;;;;5014006;28;20052;-74
2023/08/28 00:39:58;;;;;;;17.02;10.65;;;24.20;99.90;;;;;;4998808;28;20029;-73
2023/08/28 00:42:26;;;;;;;17.10;10.00;;;24.20;99.90;;;;;;5015835;28;20116;-74
2023/08/28 00:44:51;;;;;;;17.73;11.35;;;24.20;99.90;;;;;;5015700;28;20137;-74
2023/08/28 00:47:19;;;;;;;24.58;11.02;;;24.20;99.90;;;;;;5019594;28;20065;-74
2023/08/28 00:49:44;;;;;;;18.90;11.07;;;24.10;99.90;;;;;;5015564;28;20453;-73
2023/08/28 00:52:12;;;;;;;16.42;10.73;;;24.10;99.90;;;;;;5033203;28;20033;-73
2023/08/28 00:54:41;;;;;;;20.20;10.23;;;24.10;99.90;;;;;;5033722;28;20053;-74
2023/08/28 00:57:09;;;;;;;23.08;10.68;;;24.10;99.90;;;;;;5015469;28;20033;-73
2023/08/28 00:59:35;;;;;;;16.42;10.10;;;24.10;99.90;;;;;;5033704;28;20029;-74
2023/08/28 01:02:03;;;;;;;17.52;9.88;;;24.00;99.90;;;;;;5014784;28;20036;-74
2023/08/28 01:04:30;;;;;;;18.50;10.50;;;23.90;99.90;;;;;;5015570;28;20056;-74
2023/08/28 01:07:22;;;;;;;16.13;9.85;;;24.00;99.90;;;;;;5015359;28;20110;-74
2023/08/28 01:10:01;;;;;;;25.23;11.77;;;24.10;99.90;;;;;;5012965;28;20037;-74
2023/08/28 01:12:33;;;;;;;16.08;10.68;;;23.90;99.90;;;;;;5015070;28;20041;-74
2023/08/28 01:15:13;;;;;;;21.25;10.63;;;23.90;99.90;;;;;;5015382;28;20034;-74
2023/08/28 01:17:41;;;;;;;18.85;10.45;;;23.90;99.90;;;;;;5015110;28;20530;-74
2023/08/28 01:20:13;;;;;;;19.83;10.88;;;23.90;99.90;;;;;;5014921;28;20029;-74
2023/08/28 01:22:58;;;;;;;18.73;9.98;;;23.80;99.90;;;;;;5018717;28;20076;-74
2023/08/28 01:25:29;;;;;;;17.05;10.75;;;23.80;99.90;;;;;;5014898;28;20029;-74
2023/08/28 01:27:56;;;;;;;19.38;11.40;;;23.80;99.90;;;;;;5014355;28;20048;-74
2023/08/28 01:30:22;;;;;;;17.70;11.57;;;23.80;99.90;;;;;;5033378;28;20399;-75
2023/08/28 01:32:48;;;;;;;19.50;10.32;;;23.80;99.90;;;;;;5034219;28;20033;-74
2023/08/28 01:35:26;;;;;;;17.80;10.13;;;23.90;99.90;;;;;;5016220;28;20033;-74
2023/08/28 01:38:02;;;;;;;18.13;10.25;;;23.80;99.90;;;;;;5033708;28;20033;-74
2023/08/28 01:41:07;;;;;;;17.88;10.00;;;;;;;;;;5033917;28;20108;-74
2023/08/28 01:43:36;;;;;;;22.85;10.55;;;;;;;;;;4942661;29;20039;-74
2023/08/28 01:46:08;;;;;;;18.02;10.75;;;;;;;;;;4953815;29;20173;-74
2023/08/28 01:48:54;;;;;;;19.17;10.43;;;23.60;99.90;;;;;;4953285;28;20032;-74
2023/08/28 01:51:23;;;;;;;18.50;11.40;;;23.70;99.90;;;;;;4953383;29;20050;-74
2023/08/28 01:53:50;;;;;;;18.45;11.48;;;23.60;99.90;;;;;;4953632;29;20412;-74
2023/08/28 01:56:24;;;;;;;17.95;10.57;;;23.50;99.90;;;;;;4953575;29;20034;-74
2023/08/28 01:58:59;;;;;;;19.08;11.25;;;23.40;99.90;;;;;;4937541;29;20043;-74
2023/08/28 02:01:26;;;;;;;21.40;11.13;;;23.30;99.90;;;;;;4937457;29;20047;-74
2023/08/28 02:03:52;;;;;;;18.77;10.43;;;23.40;99.90;;;;;;4953497;29;20035;-74
2023/08/28 02:06:19;;;;;;;27.73;12.00;;;23.40;99.90;;;;;;4937281;29;20035;-74
2023/08/28 02:08:50;;;;;;;20.98;11.98;;;23.30;99.90;;;;;;4937563;29;20549;-74
2023/08/28 02:11:20;;;;;;;20.42;12.60;;;23.30;99.90;;;;;;4953550;29;20070;-74
2023/08/28 02:13:46;;;;;;;23.20;14.40;;;23.20;99.90;;;;;;4953177;29;20028;-74
2023/08/28 02:16:15;;;;;;;20.27;11.68;;;23.20;99.90;;;;;;4937205;29;20038;-74
2023/08/28 02:18:49;;;;;;;18.30;11.90;;;23.10;99.90;;;;;;5015334;28;20116;-74
2023/08/28 02:21:15;;;;;;;21.33;12.63;;;23.10;99.90;;;;;;5015620;28;20124;-73
2023/08/28 02:23:46;;;;;;;24.90;12.80;;;23.10;99.90;;;;;;5033273;28;20520;-75
2023/08/28 02:26:12;;;;;;;21.63;11.07;;;23.10;99.90;;;;;;5015269;28;20109;-74
2023/08/28 02:28:38;;;;;;;18.73;11.80;;;23.10;99.90;;;;;;5033440;28;20052;-74
2023/08/28 02:31:05;;;;;;;18.05;11.40;;;23.10;99.90;;;;;;5015020;28;20041;-74
2023/08/28 02:33:31;;;;;;;19.15;11.05;;;23.00;99.90;;;;;;5015278;28;20034;-74
2023/08/28 02:36:00;;;;;;;22.05;13.18;;;23.00;99.90;;;;;;5015171;28;20033;-74
2023/08/28 02:38:26;;;;;;;18.92;11.38;;;22.90;99.90;;;;;;5033111;28;20026;-74
2023/08/28 02:40:52;;;;;;;19.35;11.88;;;23.00;99.90;;;;;;5031124;28;20384;-74
2023/08/28 02:43:17;;;;;;;19.88;12.90;;;22.90;99.90;;;;;;5032829;28;20025;-74
2023/08/28 02:45:44;;;;;;;20.38;11.48;;;23.00;99.90;;;;;;5015134;28;20133;-74
2023/08/28 02:48:10;;;;;;;18.85;11.90;;;22.80;99.90;;;;;;5014323;28;20504;-73
2023/08/28 02:50:36;;;;;;;21.27;13.32;;;22.80;99.90;;;;;;5002243;28;20030;-74
2023/08/28 02:53:03;;;;;;;34.80;12.20;;;22.80;99.90;;;;;;5014694;28;20033;-74
2023/08/28 02:55:40;;;;;;;21.27;12.10;;;;;;;;;;5014670;28;20032;-74
2023/08/28 02:58:08;;;;;;;23.60;12.40;;;22.60;99.90;;;;;;5014838;28;20075;-73
2023/08/28 03:00:37;;;;;;;19.15;10.75;;;;;;;;;;5014382;28;20037;-74
2023/08/28 03:03:04;;;;;;;19.42;11.57;;;22.80;99.90;;;;;;5032171;28;20025;-74
2023/08/28 03:05:30;;;;;;;23.45;13.05;;;21.10;99.90;;;;;;5013912;28;20029;-74
2023/08/28 03:07:55;;;;;;;24.83;13.52;;;22.60;99.90;;;;;;5014511;28;20102;-74
2023/08/28 03:10:22;;;;;;;21.63;12.05;;;22.40;99.90;;;;;;5014125;28;20022;-74
2023/08/28 03:12:47;;;;;;;21.25;12.88;;;22.30;99.90;;;;;;5014691;28;20068;-74
2023/08/28 03:15:13;;;;;;;17.63;11.55;;;22.20;99.90;;;;;;5014205;28;20064;-73
2023/08/28 03:17:39;;;;;;;18.63;11.65;;;22.20;99.90;;;;;;5013744;28;20412;-74
2023/08/28 03:20:09;;;;;;;22.77;12.55;;;22.20;99.90;;;;;;5013906;28;20032;-74
2023/08/28 03:22:35;;;;;;;20.45;12.68;;;22.30;99.90;;;;;;5014685;28;20124;-74
2023/08/28 03:25:01;;;;;;;23.48;12.35;;;22.30;99.90;;;;;;5014454;28;20125;-74
2023/08/28 03:27:29;;;;;;;19.42;12.38;;;22.30;99.90;;;;;;5013924;28;20053;-74
2023/08/28 03:29:55;;;;;;;20.92;12.27;;;22.20;99.90;;;;;;5014231;28;20080;-73
2023/08/28 03:32:21;;;;;;;20.73;13.32;;;22.20;99.90;;;;;;5014051;28;20033;-74
2023/08/28 03:34:48;;;;;;;20.40;13.35;;;22.10;99.90;;;;;;5032005;28;20461;-73
2023/08/28 03:37:14;;;;;;;21.25;12.88;;;22.10;99.90;;;;;;5014122;28;20025;-74
2023/08/28 03:39:40;;;;;;;20.17;12.38;;;22.10;99.90;;;;;;5014198;28;20059;-74
2023/08/28 03:42:06;;;;;;;19.73;12.38;;;22.10;99.90;;;;;;5014245;28;20503;-74
2023/08/28 03:44:32;;;;;;;23.05;12.70;;;22.00;99.90;;;;;;5013797;28;20128;-73
2023/08/28 03:46:57;;;;;;;22.27;13.95;;;21.90;99.90;;;;;;5031608;28;20069;-73
2023/08/28 03:49:25;;;;;;;23.27;13.23;;;22.00;99.90;;;;;;5014216;28;20065;-74
2023/08/28 03:51:52;;;;;;;20.70;12.15;;;22.00;99.90;;;;;;5031221;28;20034;-73
2023/08/28 03:54:18;;;;;;;22.52;13.65;;;21.90;99.90;;;;;;5032127;28;20033;-74
2023/08/28 03:56:44;;;;;;;22.80;13.13;;;22.00;99.90;;;;;;5037663;28;20029;-73
2023/08/28 03:59:11;;;;;;;20.33;12.18;;;22.00;99.90;;;;;;5013888;28;20036;-74
2023/08/28 04:01:38;;;;;;;20.88;12.18;;;22.00;99.90;;;;;;5014029;28;20041;-74
2023/08/28 04:04:05;;;;;;;20.45;13.40;;;22.10;99.90;;;;;;5013814;28;20504;-74
2023/08/28 04:06:31;;;;;;;23.65;12.85;;;22.00;99.90;;;;;;5013882;28;20045;-74
2023/08/28 04:08:56;;;;;;;25.02;13.32;;;22.10;99.90;;;;;;5031568;28;20116;-74
2023/08/28 04:11:23;;;;;;;19.80;12.20;;;22.20;99.90;;;;;;5015964;28;20048;-73
2023/08/28 04:13:50;;;;;;;21.58;12.18;;;22.50;99.90;;;;;;5029435;28;20446;-74
2023/08/28 04:16:18;;;;;;;18.13;12.25;;;22.70;99.90;;;;;;5016129;28;20033;-74
2023/08/28 04:18:44;;;;;;;18.73;10.88;;;22.90;99.90;;;;;;5017367;28;20499;-73
2023/08/28 04:21:10;;;;;;;20.10;12.13;;;23.30;99.90;;;;;;5035622;28;20030;-74
2023/08/28 04:23:36;;;;;;;17.88;10.75;;;23.70;99.90;;;;;;5035532;28;20093;-74
2023/08/28 04:26:01;;;;;;;18.55;11.63;;;23.80;99.90;;;;;;4998718;28;20045;-74
2023/08/28 04:28:29;;;;;;;20.17;11.93;;;24.10;99.90;;;;;;5016720;28;20017;-74
2023/08/28 04:30:55;;;;;;;21.08;10.52;;;24.20;99.90;;;;;;5010466;28;20037;-74
2023/08/28 04:33:21;;;;;;;18.50;10.75;;;24.20;99.90;;;;;;5017026;28;20028;-74
2023/08/28 04:35:47;;;;;;;16.48;11.02;;;24.50;99.90;;;;;;5017222;28;20492;-74
2023/08/28 04:38:14;;;;;;;19.25;11.30;;;24.80;99.90;;;;;;5016181;28;20021;-75
2023/08/28 04:40:41;;;;;;;15.23;10.25;;;24.60;99.90;;;;;;5001146;28;20029;-75
2023/08/28 04:43:07;;;;;;;17.30;10.25;;;24.80;99.90;;;;;;5035052;28;20122;-75
2023/08/28 04:45:33;;;;;;;22.55;11.07;;;25.20;99.90;;;;;;5017282;28;20464;-75
2023/08/28 04:47:58;;;;;;;16.17;10.70;;;24.60;99.90;;;;;;5016686;28;20040;-74
2023/08/28 04:50:24;;;;;;;19.75;10.57;;;25.20;99.90;;;;;;5017254;28;20021;-74
2023/08/28 04:52:50;;;;;;;17.85;10.82;;;24.90;99.90;;;;;;5034233;28;20091;-75
2023/08/28 04:55:16;;;;;;;17.45;10.68;;;24.80;99.90;;;;;;5035065;28;20433;-74
2023/08/28 04:57:42;;;;;;;26.65;10.50;;;25.10;99.90;;;;;;5034557;28;20061;-75
2023/08/28 05:00:08;;;;;;;16.50;10.75;;;25.80;99.90;;;;;;5016629;28;20034;-74
2023/08/28 05:02:34;;;;;;;17.40;10.38;;;25.80;99.90;;;;;;5017192;28;20049;-75
2023/08/28 05:05:00;;;;;;;13.65;9.18;;;25.80;99.90;;;;;;5016803;28;20037;-75
2023/08/28 05:07:26;;;;;;;16.23;9.48;;;26.40;99.90;;;;;;5034565;28;20377;-75
2023/08/28 05:09:52;;;;;;;14.18;8.88;;;26.50;99.90;;;;;;5034671;28;20018;-75
2023/08/28 05:12:18;;;;;;;16.27;9.45;;;27.00;99.90;;;;;;5017305;28;20037;-74
2023/08/28 05:14:44;;;;;;;15.85;9.70;;;27.20;99.90;;;;;;5016739;28;20495;-75
2023/08/28 05:17:10;;;;;;;17.05;10.18;;;26.30;99.90;;;;;;5016820;28;20030;-74
2023/08/28 05:19:35;;;;;;;15.82;9.25;;;26.20;99.90;;;;;;5016470;28;20430;-74
2023/08/28 05:22:01;;;;;;;20.92;9.80;;;26.20;99.90;;;;;;5002694;28;20049;-75
2023/08/28 05:24:27;;;;;;;16.70;10.52;;;26.20;99.90;;;;;;5033589;28;20021;-74
2023/08/28 05:26:53;;;;;;;16.48;10.20;;;26.10;99.90;;;;;;5034490;28;20052;-74
2023/08/28 05:29:19;;;;;;;17.15;10.45;;;26.10;99.90;;;;;;5016403;28;20469;-74
2023/08/28 05:31:45;;;;;;;15.32;9.70;;;26.10;99.90;;;;;;5009833;28;20034;-74
2023/08/28 05:34:11;;;;;;;18.92;9.95;;;26.00;99.90;;;;;;5034220;28;20022;-74
2023/08/28 05:36:37;;;;;;;19.17;10.40;;;25.70;99.90;;;;;;5003277;28;20045;-74
2023/08/28 05:39:03;;;;;;;19.15;9.63;;;25.60;99.90;;;;;;5033927;28;20033;-75
2023/08/28 05:41:30;;;;;;;19.67;10.63;;;25.00;99.90;;;;;;5033983;28;20028;-75
2023/08/28 05:43:56;;;;;;;18.20;10.88;;;24.80;99.90;;;;;;5016033;28;20485;-74
2023/08/28 05:46:22;;;;;;;18.05;10.32;;;24.80;99.90;;;;;;5025207;28;20030;-74
2023/08/28 05:48:48;;;;;;;17.38;9.60;;;24.60;99.90;;;;;;5027722;28;20033;-75
2023/08/28 05:51:14;;;;;;;19.88;9.95;;;25.00;99.90;;;;;;5015882;28;20037;-75
2023/08/28 05:53:41;;;;;;;16.40;10.63;;;25.00;99.90;;;;;;5004152;28;20121;-74
2023/08/28 05:56:07;;;;;;;17.40;10.68;;;25.40;99.90;;;;;;5013803;28;20116;-75
2023/08/28 05:58:33;;;;;;;22.50;10.30;;;25.70;99.90;;;;;;5015447;28;20030;-75
2023/08/28 06:00:58;;;;;;;17.02;10.43;;;25.60;99.90;;;;;;5015619;28;20026;-75
2023/08/28 06:03:24;;;;;;;21.38;9.98;;;25.50;99.90;;;;;;5016068;28;20037;-75
2023/08/28 06:05:50;;;;;;;19.75;10.27;;;25.60;99.90;;;;;;5015535;28;20035;-75
2023/08/28 06:08:16;;;;;;;16.42;9.43;;;25.80;99.90;;;;;;5033480;28;20030;-75
2023/08/28 06:10:42;;;;;;;19.45;9.32;;;25.90;99.90;;;;;;5015728;28;20033;-74
2023/08/28 06:13:10;;;;;;;15.65;9.32;;;26.20;99.90;;;;;;5033500;28;20480;-77
2023/08/28 06:15:36;;;;;;;19.33;10.68;;;26.30;99.90;;;;;;5015350;28;20037;-77
2023/08/28 06:18:02;;;;;;;25.60;13.00;;;26.40;99.90;;;;;;5033283;28;20026;-76
2023/08/28 06:20:28;;;;;;;18.73;9.90;;;26.40;99.90;;;;;;5032980;28;20083;-75
2023/08/28 06:22:55;;;;;;;27.60;18.95;;;;;;;;;;5015162;28;20025;-75
2023/08/28 06:25:20;;;;;;;23.60;12.93;;;27.00;99.90;;;;;;5015452;28;20480;-75
2023/08/28 06:27:46;;;;;;;17.48;11.50;;;27.10;99.90;;;;;;5032663;28;20049;-74
2023/08/28 06:30:12;;;;;;;15.63;10.73;;;27.10;99.90;;;;;;5020428;28;20059;-75
2023/08/28 06:32:39;;;;;;;17.33;10.90;;;;;;;;;;5032927;28;20080;-75
2023/08/28 06:35:05;;;;;;;17.23;9.48;;;27.30;99.90;;;;;;5031876;28;20022;-75
2023/08/28 06:37:30;;;;;;;16.58;9.55;;;27.80;99.90;;;;;;5031700;28;20558;-75
2023/08/28 06:39:56;;;;;;;23.95;9.98;;;28.00;99.10;;;;;;5017884;28;20026;-74
2023/08/28 06:42:22;;;;;;;15.82;8.85;;;28.00;98.00;;;;;;5026821;28;20354;-74
2023/08/28 06:44:48;;;;;;;22.20;9.88;;;28.10;97.80;;;;;;5031848;28;20161;-75
2023/08/28 06:47:14;;;;;;;18.15;10.80;;;28.10;98.00;;;;;;5033095;28;20069;-76
2023/08/28 06:49:40;;;;;;;15.77;10.52;;;28.40;98.00;;;;;;5024564;28;20393;-76
2023/08/28 06:52:07;;;;;;;20.90;10.35;;;27.90;97.00;;;;;;5031241;28;20187;-76
2023/08/28 06:54:34;;;;;;;18.65;10.27;;;28.30;98.30;;;;;;5013968;28;20033;-76
2023/08/28 06:57:00;;;;;;;18.23;9.73;;;28.70;97.10;;;;;;5032040;28;20059;-74
2023/08/28 06:59:26;;;;;;;19.13;10.80;;;28.60;96.40;;;;;;5031666;28;20029;-74
2023/08/28 07:01:52;;;;;;;17.65;9.98;;;28.90;96.10;;;;;;5030039;28;20029;-76
2023/08/28 07:04:18;;;;;;;18.75;9.60;;;29.40;96.80;;;;;;5032066;28;20036;-74
2023/08/28 07:06:43;;;;;;;24.48;10.00;;;29.70;97.00;;;;;;5032588;28;20037;-74
2023/08/28 07:09:10;;;;;;;18.88;10.77;;;;;;;;;;5034272;28;20029;-74
2023/08/28 07:11:36;;;;;;;16.17;9.70;;;30.30;94.30;;;;;;5033173;28;20041;-72
2023/08/28 07:14:02;;;;;;;23.00;10.77;;;30.20;93.60;;;;;;5032223;28;20057;-71
2023/08/28 07:16:28;;;;;;;23.33;11.85;;;30.50;93.10;;;;;;5027860;28;20124;-72
2023/08/28 07:18:54;;;;;;;20.83;11.43;;;30.10;92.80;;;;;;5032190;28;20104;-74
2023/08/28 07:21:20;;;;;;;16.30;10.77;;;29.70;92.90;;;;;;5031912;28;20053;-75
2023/08/28 07:23:46;;;;;;;17.00;9.95;;;30.00;93.20;;;;;;5031685;28;20484;-74
2023/08/28 07:26:12;;;;;;;19.15;11.52;;;30.10;92.80;;;;;;5032531;28;20021;-76
2023/08/28 07:28:38;;;;;;;25.00;11.43;;;30.30;93.20;;;;;;5031680;28;20029;-76
2023/08/28 07:31:04;;;;;;;24.10;11.00;;;29.80;92.90;;;;;;5031920;28;20125;-77
2023/08/28 07:33:29;;;;;;;16.98;10.48;;;30.30;92.90;;;;;;5031363;28;20444;-72
2023/08/28 07:35:56;;;;;;;18.30;11.20;;;;;;;;;;5031629;28;20101;-73
2023/08/28 07:38:22;;;;;;;19.23;10.50;;;;;;;;;;5031741;28;20052;-72
2023/08/28 07:40:48;;;;;;;19.48;9.80;;;;;;;;;;5031387;28;20060;-72
2023/08/28 07:43:16;;;;;;;16.77;10.02;;;;;;;;;;5030941;28;20368;-72
2023/08/28 07:45:44;;;;;;;17.55;10.18;;;;;;;;;;5031147;28;20064;-73
2023/08/28 07:48:12;;;;;;;17.73;9.27;;;;;;;;;;5028968;28;20026;-73
2023/08/28 07:50:40;;;;;;;20.25;9.98;;;;;;;;;;5031297;28;20447;-74
2023/08/28 07:53:06;;;;;;;21.67;10.30;;;;;;;;;;5025751;28;20029;-75
2023/08/28 07:55:33;;;;;;;17.30;10.45;;;;;;;;;;5031498;28;20101;-75
2023/08/28 07:57:59;;;;;;;14.35;9.60;;;;;;;;;;5031713;28;20136;-74
2023/08/28 08:00:25;;;;;;;21.65;10.10;;;;;;;;;;5031496;28;20097;-75
2023/08/28 08:02:52;;;;;;;21.17;10.30;;;;;;;;;;5031671;28;20057;-74
2023/08/28 08:05:19;;;;;;;17.35;9.50;;;;;;;;;;5018643;28;20080;-74
2023/08/28 08:07:45;;;;;;;20.48;9.65;;;;;;;;;;5031580;28;20041;-75
2023/08/28 08:10:11;;;;;;;19.45;10.23;;;;;;;;;;5031724;28;20021;-74
2023/08/28 08:12:38;;;;;;;17.88;8.95;;;;;;;;;;5030807;28;20397;-75
2023/08/28 08:15:06;;;;;;;17.10;10.00;;;;;;;;;;5031769;28;20454;-75
2023/08/28 08:17:32;;;;;;;16.20;8.82;;;;;;;;;;5031095;28;20044;-75
2023/08/28 08:19:58;;;;;;;17.20;10.23;;;;;;;;;;5030203;28;20421;-74
2023/08/28 08:22:24;;;;;;;13.43;8.30;;;;;;;;;;5029570;28;20029;-74
2023/08/28 08:24:51;;;;;;;16.50;9.10;;;;;;;;;;5020927;28;20049;-74
2023/08/28 08:27:17;;;;;;;20.98;9.50;;;33.10;92.80;;;;;;5027126;28;20422;-76
2023/08/28 08:29:43;;;;;;;16.05;9.55;;;32.90;90.50;;;;;;5030663;28;20104;-74
2023/08/28 08:32:09;;;;;;;16.85;9.88;;;;;;;;;;5012116;28;20540;-75
2023/08/28 08:34:35;;;;;;;20.02;10.10;;;33.30;92.00;;;;;;5012152;28;20400;-75
2023/08/28 08:37:00;;;;;;;18.80;9.68;;;33.00;91.50;;;;;;5033006;28;20029;-74
2023/08/28 08:39:26;;;;;;;19.33;9.05;;;32.90;91.60;;;;;;5031120;28;20580;-73
2023/08/28 08:41:54;;;;;;;14.93;9.38;;;32.70;90.80;;;;;;5031357;28;20021;-74
2023/08/28 08:44:19;;;;;;;20.33;9.02;;;32.60;92.00;;;;;;5030841;28;20038;-75
2023/08/28 08:46:46;;;;;;;13.07;8.70;;;32.80;91.90;;;;;;5029166;28;20032;-75
2023/08/28 08:49:18;;;;;;;16.58;8.70;;;33.10;91.60;;;;;;5031692;28;20018;-77
2023/08/28 08:51:45;;;;;;;16.33;8.70;;;33.20;92.10;;;;;;5026884;28;20043;-75
2023/08/28 08:54:34;;;;;;;16.92;9.27;;;33.60;96.80;;;;;;5031194;28;20025;-76
2023/08/28 08:57:04;;;;;;;16.65;8.43;;;33.50;77.80;;;;;;5030228;28;20029;-77
2023/08/28 08:59:32;;;;;;;13.38;7.93;;;33.40;78.20;;;;;;5032735;28;20029;-76
2023/08/28 09:02:02;;;;;;;19.60;7.93;;;33.30;78.40;;;;;;5033882;28;20037;-76
2023/08/28 09:04:28;;;;;;;15.73;7.53;;;;;;;;;;5033423;28;20120;-76
2023/08/28 09:06:55;;;;;;;15.50;7.35;;;;;;;;;;5032820;28;20025;-76
2023/08/28 09:09:21;;;;;;;14.80;6.75;;;34.30;96.10;;;;;;5034429;28;20544;-74
2023/08/28 09:11:48;;;;;;;14.98;7.90;;;34.30;79.10;;;;;;5034698;28;20100;-76
2023/08/28 09:14:15;;;;;;;15.10;7.78;;;;;;;;;;5032874;28;20036;-75
2023/08/28 09:16:41;;;;;;;14.50;8.00;;;34.80;78.30;;;;;;5032442;28;20365;-74
2023/08/28 09:19:08;;;;;;;14.43;7.57;;;;;;;;;;5035420;28;20472;-75
2023/08/28 09:21:36;;;;;;;14.68;8.55;;;35.10;78.50;;;;;;5033683;28;20018;-77
2023/08/28 09:24:10;;;;;;;15.88;7.95;;;35.20;77.50;;;;;;5031869;28;20037;-76
2023/08/28 09:26:38;;;;;;;14.15;7.70;;;35.20;77.70;;;;;;5033186;28;20033;-76
2023/08/28 09:29:08;;;;;;;14.50;8.57;;;35.10;77.80;;;;;;5029788;28;20033;-78
2023/08/28 09:31:42;;;;;;;17.45;7.82;;;35.10;76.20;;;;;;5031318;28;20032;-77
2023/08/28 09:34:08;;;;;;;18.20;8.50;;;35.30;77.90;;;;;;5033826;28;20033;-74
2023/08/28 09:36:36;;;;;;;14.07;7.68;;;34.60;76.70;;;;;;5030662;28;20026;-75
2023/08/28 09:39:04;;;;;;;15.50;7.82;;;34.50;76.00;;;;;;5030738;28;20075;-76
2023/08/28 09:41:38;;;;;;;21.05;8.98;;;34.60;76.40;;;;;;5033326;28;20061;-73
2023/08/28 09:44:05;;;;;;;16.77;7.38;;;34.80;77.60;;;;;;5025120;28;20045;-74
2023/08/28 09:46:31;;;;;;;19.10;8.68;;;34.60;76.80;;;;;;5034092;28;20052;-76
2023/08/28 09:48:57;;;;;;;18.10;8.57;;;35.00;76.80;;;;;;5030784;28;20116;-75
2023/08/28 09:51:41;;;;;;;18.38;8.32;;;35.00;76.40;;;;;;5033399;28;20104;-75
2023/08/28 09:54:11;;;;;;;17.60;8.13;;;35.00;76.10;;;;;;5033321;28;20477;-76
2023/08/28 09:56:38;;;;;;;24.35;9.60;;;34.80;75.40;;;;;;5036736;28;20036;-75
2023/08/28 09:59:06;;;;;;;14.45;8.10;;;34.90;76.50;;;;;;5032957;28;20057;-73
2023/08/28 10:01:34;;;;;;;17.20;9.23;;;34.90;76.40;;;;;;5031696;28;20022;-76
2023/08/28 10:04:04;;;;;;;16.42;8.30;;;34.90;75.60;;;;;;5031148;28;20048;-76
2023/08/28 10:06:34;;;;;;;17.83;7.75;;;34.40;75.70;;;;;;5020898;28;20095;-74
2023/08/28 10:09:04;;;;;;;13.55;7.60;;;34.70;76.00;;;;;;5033185;28;20500;-76
2023/08/28 10:11:37;;;;;;;17.17;8.30;;;34.90;75.70;;;;;;5033211;28;20544;-78
2023/08/28 10:14:04;;;;;;;19.65;7.85;;;34.80;75.40;;;;;;5033535;28;20409;-75
2023/08/28 10:16:43;;;;;;;18.52;7.57;;;34.80;75.20;;;;;;5033415;28;20473;-75
2023/08/28 10:19:36;;;;;;;17.30;7.22;;;34.70;74.40;;;;;;5033077;28;20041;-74
2023/08/28 10:22:07;;;;;;;12.15;6.80;;;35.10;75.10;;;;;;5033576;28;20041;-76
2023/08/28 10:24:36;;;;;;;19.02;8.40;;;35.30;74.50;;;;;;5033364;28;20040;-77
2023/08/28 10:27:03;;;;;;;18.50;7.70;;;35.10;72.90;;;;;;5032822;28;20495;-75
2023/08/28 10:29:30;;;;;;;14.15;8.07;;;35.30;72.80;;;;;;5033347;28;20468;-73
2023/08/28 10:31:57;;;;;;;15.18;7.45;;;;;;;;;;5032893;28;20049;-74
2023/08/28 10:34:24;;;;;;;20.98;8.15;;;35.50;71.40;;;;;;5032985;28;20029;-74
2023/08/28 10:36:51;;;;;;;16.02;7.90;;;35.60;71.80;;;;;;5033086;28;20033;-73
2023/08/28 10:39:17;;;;;;;24.20;7.45;;;35.90;94.20;;;;;;5033005;28;20022;-74
2023/08/28 10:41:46;;;;;;;20.95;7.25;;;36.20;80.40;;;;;;5032901;28;20048;-76
2023/08/28 10:44:13;;;;;;;15.77;7.40;;;36.20;82.10;;;;;;5032769;28;20057;-75
2023/08/28 10:46:40;;;;;;;15.13;7.55;;;36.20;70.30;;;;;;5014670;28;20464;-74
2023/08/28 10:49:07;;;;;;;18.30;7.25;;;;;;;;;;5032781;28;20057;-75
2023/08/28 10:51:36;;;;;;;13.55;7.60;;;36.30;69.20;;;;;;5032718;28;20036;-74
2023/08/28 10:54:06;;;;;;;15.82;6.93;;;36.30;69.50;;;;;;5032535;28;20037;-73
2023/08/28 10:56:37;;;;;;;14.32;7.15;;;36.40;70.10;;;;;;5032511;28;20021;-73
2023/08/28 10:59:18;;;;;;;;;;;36.60;68.90;;;;;;5032992;28;20029;-74
2023/08/28 11:02:05;;;;;;;15.63;7.43;;;;;;;;;;5014793;28;20366;-73
2023/08/28 11:04:39;;;;;;;19.92;8.52;;;36.80;67.90;;;;;;5032199;28;20031;-74
2023/08/28 11:07:09;;;;;;;15.98;8.35;;;36.50;67.30;;;;;;5032776;28;20037;-73
2023/08/28 11:09:36;;;;;;;13.45;7.63;;;36.50;67.20;;;;;;5032335;28;20029;-73
2023/08/28 11:12:02;;;;;;;15.23;7.05;;;36.40;67.50;;;;;;5032386;28;20125;-74
2023/08/28 11:14:41;;;;;;;12.73;6.53;;;36.40;66.80;;;;;;5032108;28;20199;-73
2023/08/28 11:17:10;;;;;;;13.68;7.38;;;36.40;67.80;;;;;;5032125;28;20116;-73
2023/08/28 11:19:54;;;;;;;14.40;7.18;;;36.50;68.60;;;;;;5032889;28;20047;-72
2023/08/28 11:22:42;;;;;;;16.77;8.23;;;36.60;66.30;;;;;;5031410;28;20025;-76
2023/08/28 11:25:13;;;;;;;15.25;7.85;;;36.80;67.50;;;;;;5032068;28;20025;-73
2023/08/28 11:27:49;;;;;;;20.15;7.97;;;36.90;68.40;;;;;;5020270;28;20120;-76
2023/08/28 11:30:17;;;;;;;17.25;8.30;;;36.90;84.50;;;;;;5031934;28;20116;-74
2023/08/28 11:32:45;;;;;;;19.02;8.27;;;36.70;85.90;;;;;;5031844;28;20049;-75
2023/08/28 11:35:17;;;;;;;15.00;8.32;;;;;;;;;;5031988;28;20026;-77
2023/08/28 11:37:54;;;;;;;16.35;6.82;;;36.90;66.80;;;;;;5031810;28;20034;-74
2023/08/28 11:40:23;;;;;;;20.95;8.00;;;37.00;68.20;;;;;;5031994;28;20464;-73
2023/08/28 11:43:00;;;;;;;17.63;8.43;;;36.90;66.90;;;;;;5031665;28;20036;-76
2023/08/28 11:45:26;;;;;;;18.60;7.85;;;37.00;66.30;;;;;;5031806;28;20048;-73
2023/08/28 11:47:52;;;;;;;14.32;7.55;;;36.80;66.10;;;;;;5032358;28;20025;-73
2023/08/28 11:50:18;;;;;;;18.17;8.18;;;;;;;;;;5031748;28;20088;-74
2023/08/28 11:52:48;;;;;;;16.75;7.85;;;37.10;66.70;;;;;;5031769;28;20066;-73
2023/08/28 11:55:14;;;;;;;19.55;7.70;;;37.20;66.00;;;;;;5031538;28;20054;-74
2023/08/28 11:57:40;;;;;;;19.00;7.15;;;;;;;;;;5031760;28;20152;-74
2023/08/28 12:00:11;;;;;;;16.75;7.35;;;;;;;;;;5031518;28;20105;-75
2023/08/28 12:02:41;;;;;;;9.98;6.50;;;37.40;65.70;;;;;;5031797;28;20069;-73
2023/08/28 12:05:08;;;;;;;16.88;8.35;;;37.40;65.70;;;;;;5031786;28;20026;-73
2023/08/28 12:07:34;;;;;;;15.43;8.02;;;37.30;66.00;;;;;;5031590;28;20026;-74
2023/08/28 12:10:00;;;;;;;15.38;7.95;;;37.30;65.60;;;;;;5031654;28;20032;-74
2023/08/28 12:12:26;;;;;;;14.18;7.28;;;37.30;64.70;;;;;;5031421;28;20091;-72
2023/08/28 12:14:53;;;;;;;15.23;7.47;;;;;;;;;;5032092;28;20075;-74
2023/08/28 12:17:22;;;;;;;18.63;7.55;;;37.50;63.90;;;;;;5031549;28;20485;-74
2023/08/28 12:19:50;;;;;;;17.92;6.75;;;37.50;64.20;;;;;;5031584;28;20100;-75
2023/08/28 12:22:16;;;;;;;15.57;7.43;;;37.40;64.00;;;;;;5031568;28;20454;-75
2023/08/28 12:24:44;;;;;;;18.67;8.02;;;37.50;65.00;;;;;;5031236;28;20025;-72
2023/08/28 12:27:11;;;;;;;13.65;7.75;;;37.30;64.50;;;;;;5031865;28;20405;-74
2023/08/28 12:29:44;;;;;;;17.55;7.78;;;37.40;65.00;;;;;;5031189;28;20519;-75
2023/08/28 12:32:18;;;;;;;17.92;7.47;;;37.30;64.40;;;;;;5031509;28;20135;-76
2023/08/28 12:34:45;;;;;;;15.75;6.93;;;37.30;63.70;;;;;;5034933;28;20025;-73
2023/08/28 12:37:13;;;;;;;14.57;6.75;;;37.30;64.30;;;;;;5034893;28;20393;-73
2023/08/28 12:39:54;;;;;;;18.80;8.10;;;;;;;;;;5035172;28;20372;-73
2023/08/28 12:42:21;;;;;;;;;;;37.60;63.40;;;;;;5035396;28;20475;-74
2023/08/28 12:44:47;;;;;;;18.90;6.70;;;37.40;64.70;;;;;;5035170;28;19999;-74
2023/08/28 12:47:15;;;;;;;13.63;6.85;;;37.50;63.30;;;;;;5034823;28;20481;-75
2023/08/28 12:49:42;;;;;;;26.42;8.45;;;37.40;63.20;;;;;;5035130;28;20388;-75